ilmateenistus.ee keskkonnaagentuur.ee
EETN Tallinna lennuväli
FTEO31 EETN 021700
TAF EETN 021700Z 0218/0318 16010KT 9999 SCT025 BECMG 0222/0224 BKN015
    PROB40 TEMPO 0300/0308 BKN007=

METAR EETN 021820Z 15007KT CAVOK M03/M05 Q1027 R08/290195 NOSIG=
Tallinna lennuväli
EEKA Kärdla lennuväli
FCEO32 EETN 021300 AAA
TAF AMD EEKA 021700Z 0214/0220 CNL=

METAR EEKA 021820Z NIL=
Kärdla lennuväli
EEKE Kuressaare lennuväli
FCEO32 EETN 021500
TAF EEKE 021500Z 0216/0222 16010KT 9999 SCT020 PROB40 TEMPO 0218/0222
    BKN007=

METAR EEKE 021820Z AUTO 18014KT 9999NDV NCD 00/M03 Q1025=
Kuressaare lennuväli
EEPU Pärnu lennuväli
METAR EEPU 021820Z NIL=
Pärnu lennuväli
EETU Tartu lennuväli
METAR EETU 021820Z AUTO 14010KT 9999 OVC010/// M02/M04 Q1028=
Tartu lennuväli
EEEI Ämari lennuväli
METAR EEEI 021750Z 13008KT 9999 OVC032 M01/M04 Q1026 R24/290095 NOSIG=
Ämari lennuväli